Time;durP1;ratioP1;P1;durP2;ratioP2;P2;SDS_P1;SDS_P2;PMS_P1;PMS_P2;Temp;Humidity;BMP_temperature;BMP_pressure;BME280_temperature;BME280_humidity;BME280_pressure;Samples;Min_cycle;Max_cycle;Signal;HPM_P1;HPM_P2
2020/12/16 00:02:17;;;;;;;49.43;31.73;;;;;;;6.96;100.00;94801.53;5111138;28;20474;-75
2020/12/16 00:04:43;;;;;;;41.67;32.63;;;;;;;7.05;100.00;94801.63;5111634;28;20431;-75
2020/12/16 00:07:10;;;;;;;41.33;32.63;;;;;;;6.93;100.00;94781.31;5111703;28;20433;-75
2020/12/16 00:09:37;;;;;;;33.90;30.47;;;;;;;7.10;100.00;94805.34;5111183;28;20445;-75
2020/12/16 00:12:03;;;;;;;38.97;30.57;;;;;;;7.09;100.00;94806.31;5111320;28;20469;-75
2020/12/16 00:14:30;;;;;;;44.00;30.87;;;;;;;7.07;100.00;94807.41;5111226;28;20957;-75
2020/12/16 00:16:56;;;;;;;41.13;33.40;;;;;;;7.11;100.00;94803.59;5111643;28;20431;-75
2020/12/16 00:19:23;;;;;;;43.37;32.67;;;;;;;7.09;100.00;94803.75;5111035;28;20435;-75
2020/12/16 00:21:49;;;;;;;51.60;34.47;;;;;;;6.99;100.00;94787.59;5111268;28;20492;-75
2020/12/16 00:24:16;;;;;;;46.93;32.77;;;;;;;6.96;100.00;94796.41;5111207;28;20437;-75
2020/12/16 00:26:44;;;;;;;46.50;32.37;;;;;;;6.91;100.00;94808.00;5111040;28;20487;-75
2020/12/16 00:29:11;;;;;;;36.13;30.70;;;;;;;6.95;100.00;94806.75;5110924;28;20439;-74
2020/12/16 00:31:38;;;;;;;36.03;31.40;;;;;;;6.96;100.00;94796.41;5110622;28;20459;-74
2020/12/16 00:34:05;;;;;;;36.93;30.87;;;;;;;6.91;100.00;94769.59;5111342;28;20449;-75
2020/12/16 00:36:35;;;;;;;35.90;31.73;;;;;;;7.12;100.00;94800.13;5111195;28;20451;-74
2020/12/16 00:39:02;;;;;;;38.27;31.53;;;;;;;7.03;100.00;94780.47;5110924;28;20431;-75
2020/12/16 00:41:30;;;;;;;40.27;30.87;;;;;;;7.13;100.00;94806.84;5111197;28;20423;-76
2020/12/16 00:43:57;;;;;;;38.97;32.10;;;;;;;7.13;100.00;94796.59;5111172;28;20495;-74
2020/12/16 00:46:24;;;;;;;38.10;32.87;;;;;;;7.11;100.00;94788.25;5111066;28;20430;-74
2020/12/16 00:48:50;;;;;;;41.07;31.03;;;;;;;7.02;100.00;94783.97;5110929;28;20455;-74
2020/12/16 00:51:17;;;;;;;42.40;30.60;;;;;;;7.08;100.00;94794.44;5110485;28;20492;-74
2020/12/16 00:53:43;;;;;;;41.80;31.80;;;;;;;7.12;100.00;94789.88;5111047;28;20441;-74
2020/12/16 00:56:10;;;;;;;47.00;32.63;;;;;;;7.07;100.00;94790.28;5110743;28;20816;-75
2020/12/16 00:58:36;;;;;;;41.73;30.00;;;;;;;7.03;100.00;94785.59;5110870;28;20451;-74
2020/12/16 01:01:04;;;;;;;41.40;31.73;;;;;;;7.09;100.00;94788.38;5110143;28;20458;-75
2020/12/16 01:03:31;;;;;;;37.20;29.93;;;;;;;7.14;100.00;94787.16;5110551;28;20810;-75
2020/12/16 01:05:58;;;;;;;36.73;33.03;;;;;;;7.03;100.00;94778.72;5110432;28;20443;-74
2020/12/16 01:08:24;;;;;;;35.17;31.00;;;;;;;6.96;100.00;94781.03;5110907;28;20435;-75
2020/12/16 01:10:51;;;;;;;35.17;31.17;;;;;;;7.01;100.00;94780.63;5110623;28;20488;-74
2020/12/16 01:13:17;;;;;;;47.47;32.53;;;;;;;6.88;100.00;94786.03;5110577;28;20812;-75
2020/12/16 01:15:44;;;;;;;40.17;30.47;;;;;;;6.81;100.00;94787.56;5110270;28;20961;-74
2020/12/16 01:18:11;;;;;;;42.33;32.13;;;;;;;6.83;100.00;94785.66;5110403;28;20431;-74
2020/12/16 01:20:38;;;;;;;38.10;31.53;;;;;;;6.74;100.00;94795.75;5110113;28;20926;-74
2020/12/16 01:23:04;;;;;;;39.57;30.53;;;;;;;6.80;100.00;94783.38;5110463;28;20512;-74
2020/12/16 01:25:30;;;;;;;43.73;32.30;;;;;;;6.57;100.00;94774.25;5110858;28;20442;-74
2020/12/16 01:27:59;;;;;;;46.20;31.60;;;;;;;6.54;100.00;94754.09;5110643;28;21156;-75
2020/12/16 01:30:26;;;;;;;41.60;31.23;;;;;;;6.81;100.00;94774.75;5110800;28;20872;-74
2020/12/16 01:32:53;;;;;;;37.87;30.07;;;;;;;6.91;100.00;94772.16;5110341;28;20435;-74
2020/12/16 01:35:20;;;;;;;48.27;32.87;;;;;;;6.89;100.00;94768.91;5110520;28;20443;-74
2020/12/16 01:37:47;;;;;;;38.10;29.53;;;;;;;6.98;100.00;94768.91;5110671;28;20441;-74
2020/12/16 01:40:14;;;;;;;55.00;33.50;;;;;;;7.03;100.00;94762.53;5110717;28;20436;-74
2020/12/16 01:42:42;;;;;;;45.73;30.37;;;;;;;6.97;100.00;94761.34;5110626;28;20455;-75
2020/12/16 01:45:10;;;;;;;35.30;30.10;;;;;;;6.99;100.00;94767.13;5110591;28;20431;-75
2020/12/16 01:47:36;;;;;;;42.40;32.70;;;;;;;6.80;100.00;94766.25;5110657;28;20435;-74
2020/12/16 01:50:03;;;;;;;38.63;31.07;;;;;;;6.80;100.00;94763.69;5110418;28;20451;-75
2020/12/16 01:52:31;;;;;;;41.70;31.77;;;;;;;6.51;100.00;94759.47;5110277;28;20435;-75
2020/12/16 01:54:59;;;;;;;36.80;30.27;;;;;;;6.41;100.00;94773.06;5110483;28;20940;-76
2020/12/16 01:57:26;;;;;;;37.50;31.10;;;;;;;6.46;100.00;94766.75;5110163;28;20459;-75
2020/12/16 01:59:53;;;;;;;37.40;30.70;;;;;;;6.26;100.00;94765.03;5110321;28;20810;-75
2020/12/16 02:02:20;;;;;;;40.67;31.27;;;;;;;6.43;100.00;94765.25;5109930;28;20483;-75
2020/12/16 02:04:51;;;;;;;38.73;28.53;;;;;;;6.30;100.00;94755.31;5110059;28;20428;-75
2020/12/16 02:07:17;;;;;;;34.93;28.97;;;;;;;6.40;100.00;94756.13;5110410;28;20475;-75
2020/12/16 02:09:45;;;;;;;42.90;29.40;;;;;;;6.53;100.00;94762.69;5110479;28;20431;-75
2020/12/16 02:12:13;;;;;;;34.67;30.17;;;;;;;6.49;100.00;94759.63;5111084;28;20485;-75
2020/12/16 02:14:40;;;;;;;57.33;31.43;;;;;;;6.40;100.00;94751.00;5114043;28;20435;-75
2020/12/16 02:17:08;;;;;;;50.60;30.50;;;;;;;6.52;100.00;94759.31;5113506;28;20435;-75
2020/12/16 02:19:40;;;;;;;46.40;31.07;;;;;;;6.42;100.00;94758.53;5113814;28;20443;-75
2020/12/16 02:22:07;;;;;;;35.70;28.67;;;;;;;6.28;100.00;94763.13;5113459;28;20431;-75
2020/12/16 02:24:33;;;;;;;33.80;28.10;;;;;;;6.20;100.00;94769.88;5113636;28;20415;-75
2020/12/16 02:27:01;;;;;;;42.53;30.90;;;;;;;6.29;100.00;94769.84;5113504;28;20945;-75
2020/12/16 02:29:27;;;;;;;35.17;30.33;;;;;;;6.24;100.00;94738.78;5113690;28;20502;-75
2020/12/16 02:31:57;;;;;;;36.57;28.13;;;;;;;6.46;100.00;94765.00;5113753;28;20496;-75
2020/12/16 02:34:23;;;;;;;39.77;30.30;;;;;;;6.55;100.00;94757.44;5113205;28;20419;-75
2020/12/16 02:36:50;;;;;;;35.67;28.47;;;;;;;6.63;100.00;94758.34;5113193;28;20431;-75
2020/12/16 02:39:16;;;;;;;38.77;31.50;;;;;;;6.58;100.00;94760.53;5113098;28;20435;-75
2020/12/16 02:41:43;;;;;;;38.03;29.77;;;;;;;6.33;100.00;94772.16;5112998;28;20818;-75
2020/12/16 02:44:11;;;;;;;43.70;29.60;;;;;;;6.17;100.00;94771.78;5113167;28;20432;-75
2020/12/16 02:46:37;;;;;;;39.80;30.17;;;;;;;5.94;100.00;94766.91;5113086;28;20877;-75
2020/12/16 02:49:04;;;;;;;36.67;30.70;;;;;;;5.92;100.00;94768.78;5113067;28;20483;-75
2020/12/16 02:51:31;;;;;;;43.40;30.30;;;;;;;5.75;100.00;94779.66;5112977;28;20984;-75
2020/12/16 02:53:57;;;;;;;48.23;31.30;;;;;;;5.56;100.00;94771.84;5113456;28;20528;-75
2020/12/16 02:56:23;;;;;;;37.47;29.67;;;;;;;5.89;100.00;94781.03;5112917;28;20933;-75
2020/12/16 02:58:50;;;;;;;44.17;27.97;;;;;;;5.81;100.00;94791.91;5113308;28;20446;-74
2020/12/16 03:01:17;;;;;;;37.17;28.03;;;;;;;5.74;100.00;94783.97;5112569;28;20856;-75
2020/12/16 03:03:44;;;;;;;50.33;28.00;;;;;;;5.59;100.00;94791.22;5112889;28;20435;-76
2020/12/16 03:06:14;;;;;;;33.43;29.80;;;;;;;5.62;100.00;94803.75;5113026;28;20519;-75
2020/12/16 03:08:41;;;;;;;40.03;27.87;;;;;;;5.47;100.00;94805.84;5112630;28;20427;-75
2020/12/16 03:11:07;;;;;;;38.10;27.30;;;;;;;5.73;100.00;94798.47;5112839;28;20470;-75
2020/12/16 03:13:34;;;;;;;33.03;27.00;;;;;;;5.85;100.00;94798.38;5112306;28;20442;-75
2020/12/16 03:16:00;;;;;;;29.27;26.30;;;;;;;6.03;100.00;94805.38;5112473;28;20420;-74
2020/12/16 03:18:29;;;;;;;31.20;27.07;;;;;;;6.10;100.00;94806.50;5112530;28;20439;-75
2020/12/16 03:20:56;;;;;;;30.27;27.07;;;;;;;5.88;100.00;94808.34;5110980;28;20450;-75
2020/12/16 03:23:22;;;;;;;33.27;26.33;;;;;;;5.83;100.00;94810.47;5112240;28;20434;-74
2020/12/16 03:25:48;;;;;;;28.33;25.70;;;;;;;5.96;100.00;94808.47;5111964;28;20457;-75
2020/12/16 03:28:15;;;;;;;32.53;27.30;;;;;;;5.95;100.00;94806.88;5111946;28;20447;-75
2020/12/16 03:30:41;;;;;;;35.43;28.23;;;;;;;5.83;100.00;94806.19;5112356;28;20551;-75
2020/12/16 03:33:08;;;;;;;45.03;29.30;;;;;;;5.83;100.00;94808.72;5112250;28;20868;-75
2020/12/16 03:35:35;;;;;;;32.00;27.67;;;;;;;6.08;100.00;94795.59;5112095;28;20530;-75
2020/12/16 03:38:01;;;;;;;36.30;26.57;;;;;;;5.89;100.00;94804.81;5111886;28;20433;-74
2020/12/16 03:40:28;;;;;;;35.37;26.87;;;;;;;5.91;100.00;94797.03;5111546;28;20464;-75
2020/12/16 03:42:54;;;;;;;33.87;27.73;;;;;;;5.54;100.00;94786.50;5111995;28;20443;-74
2020/12/16 03:45:20;;;;;;;34.07;27.67;;;;;;;5.57;100.00;94801.56;5111470;28;20435;-75
2020/12/16 03:47:47;;;;;;;30.83;26.57;;;;;;;5.48;100.00;94794.69;5112107;28;20510;-74
2020/12/16 03:50:13;;;;;;;32.80;26.77;;;;;;;5.49;100.00;94803.94;5111710;28;20431;-74
2020/12/16 03:52:41;;;;;;;42.33;29.17;;;;;;;5.44;100.00;94813.78;5111710;28;20430;-74
2020/12/16 03:55:07;;;;;;;33.10;28.00;;;;;;;5.50;100.00;94820.91;5111276;28;20991;-74
2020/12/16 03:57:33;;;;;;;32.10;26.53;;;;;;;5.54;100.00;94811.22;5111718;28;20451;-74
2020/12/16 04:00:00;;;;;;;43.17;26.10;;;;;;;5.49;100.00;94848.19;5111587;28;20443;-74
2020/12/16 04:02:28;;;;;;;28.07;24.40;;;;;;;5.52;100.00;94826.69;5111182;28;20482;-74
2020/12/16 04:04:54;;;;;;;36.33;27.00;;;;;;;5.42;100.00;94824.09;5111226;28;20446;-74
2020/12/16 04:07:21;;;;;;;29.57;26.33;;;;;;;5.51;100.00;94840.41;5111602;28;20909;-75
2020/12/16 04:09:48;;;;;;;29.00;26.00;;;;;;;5.67;100.00;94822.03;5111335;28;20487;-74
2020/12/16 04:12:15;;;;;;;33.50;27.40;;;;;;;5.75;100.00;94836.72;5111299;28;20463;-74
2020/12/16 04:14:41;;;;;;;36.27;26.50;;;;;;;5.36;100.00;94843.31;5111008;28;20961;-75
2020/12/16 04:17:08;;;;;;;28.00;25.10;;;;;;;5.14;100.00;94832.34;5111713;28;20443;-74
2020/12/16 04:19:34;;;;;;;28.20;25.10;;;;;;;5.16;100.00;94837.31;5111213;28;20475;-74
2020/12/16 04:22:00;;;;;;;34.97;25.30;;;;;;;4.90;100.00;94805.38;5111622;28;20849;-74
2020/12/16 04:24:33;;;;;;;27.27;24.10;;;;;;;5.09;100.00;94847.25;5110709;28;20484;-74
2020/12/16 04:27:01;;;;;;;26.97;24.37;;;;;;;5.15;100.00;94846.72;5110801;28;20431;-75
2020/12/16 04:29:27;;;;;;;28.97;24.70;;;;;;;5.21;100.00;94858.19;5110628;28;20490;-74
2020/12/16 04:31:54;;;;;;;28.17;25.30;;;;;;;5.18;100.00;94842.28;5110708;28;20466;-74
2020/12/16 04:34:21;;;;;;;27.60;24.90;;;;;;;5.09;100.00;94843.88;5110623;28;20435;-74
2020/12/16 04:36:48;;;;;;;29.00;24.07;;;;;;;5.12;100.00;94862.31;5110843;28;20449;-74
2020/12/16 04:39:15;;;;;;;32.50;23.70;;;;;;;5.35;100.00;94864.72;5110496;28;20431;-74
2020/12/16 04:41:41;;;;;;;36.20;24.83;;;;;;;5.30;100.00;94864.28;5110703;28;20445;-75
2020/12/16 04:44:10;;;;;;;27.00;23.93;;;;;;;5.21;100.00;94882.91;5110660;28;20518;-77
2020/12/16 04:46:39;;;;;;;92.20;61.33;;;;;;;5.21;100.00;94859.94;5111386;28;20435;-82
2020/12/16 04:49:06;;;;;;;123.47;65.93;;;;;;;5.22;100.00;94871.78;5110938;28;20446;-75
2020/12/16 04:51:34;;;;;;;67.43;41.70;;;;;;;5.08;100.00;94894.16;5110803;28;20469;-74
2020/12/16 04:54:01;;;;;;;27.40;24.50;;;;;;;5.32;100.00;94887.13;5110237;28;20825;-75
2020/12/16 04:56:30;;;;;;;27.27;24.80;;;;;;;5.28;100.00;94896.78;5110081;28;20449;-74
2020/12/16 04:58:57;;;;;;;26.00;23.50;;;;;;;5.25;100.00;94899.59;5110519;28;20439;-74
2020/12/16 05:01:31;;;;;;;31.83;24.77;;;;;;;5.25;100.00;94882.53;5109965;28;20460;-75
2020/12/16 05:03:57;;;;;;;25.90;23.43;;;;;;;5.25;100.00;94904.69;5110611;28;20431;-75
2020/12/16 05:06:36;;;;;;;28.67;25.60;;;;;;;5.31;100.00;94900.84;5111312;28;20952;-77
2020/12/16 05:09:09;;;;;;;25.77;23.10;;;;;;;5.15;100.00;94907.22;5090406;28;20450;-76
2020/12/16 05:11:44;;;;;;;28.50;24.40;;;;;;;5.00;100.00;94907.53;5103296;28;20465;-79
2020/12/16 05:14:12;;;;;;;224.00;102.80;;;;;;;5.20;100.00;94904.28;5109842;28;20449;-77
2020/12/16 05:17:04;;;;;;;43.63;32.83;;;;;;;5.26;100.00;94917.34;5110218;28;20446;-76
2020/12/16 05:19:36;;;;;;;26.10;23.73;;;;;;;5.32;100.00;94903.25;5090713;28;20435;-75
2020/12/16 05:22:22;;;;;;;26.83;23.97;;;;;;;5.57;100.00;94913.19;5110207;28;20429;-75
2020/12/16 05:24:50;;;;;;;26.60;24.03;;;;;;;5.63;100.00;94905.00;5111151;28;20435;-77
2020/12/16 05:27:23;;;;;;;26.83;24.60;;;;;;;5.74;100.00;94906.63;5110176;28;20522;-73
2020/12/16 05:29:55;;;;;;;28.83;25.50;;;;;;;5.84;100.00;94899.00;5110396;28;20530;-72
2020/12/16 05:32:28;;;;;;;28.57;25.70;;;;;;;5.96;100.00;94889.47;5110041;28;20471;-73
2020/12/16 05:34:56;;;;;;;30.67;26.13;;;;;;;6.05;100.00;94890.41;5110126;28;20449;-79
2020/12/16 05:37:31;;;;;;;97.80;57.60;;;;;;;6.03;100.00;94877.78;5110550;28;20533;-74
2020/12/16 05:40:01;;;;;;;34.97;30.40;;;;;;;6.13;100.00;94872.72;5110102;28;20484;-72
2020/12/16 05:42:28;;;;;;;28.63;25.70;;;;;;;5.87;100.00;94872.38;5110010;28;20420;-73
2020/12/16 05:44:57;;;;;;;26.63;24.63;;;;;;;5.89;100.00;94860.28;5110047;28;20799;-74
2020/12/16 05:47:24;;;;;;;26.47;24.40;;;;;;;5.80;100.00;94867.00;5111379;28;20447;-73
2020/12/16 05:49:51;;;;;;;25.83;23.60;;;;;;;5.82;100.00;94857.44;5113681;28;20435;-74
2020/12/16 05:52:17;;;;;;;27.60;25.00;;;;;;;5.96;100.00;94846.81;5113098;28;20475;-73
2020/12/16 05:54:49;;;;;;;26.00;23.80;;;;;;;5.97;100.00;94850.19;5113901;28;20509;-73
2020/12/16 05:57:18;;;;;;;26.93;24.60;;;;;;;5.94;100.00;94841.03;5113494;28;20462;-73
2020/12/16 06:00:07;;;;;;;48.20;34.63;;;;;;;5.99;100.00;94844.94;5113727;28;20438;-72
2020/12/16 06:02:35;;;;;;;28.73;25.67;;;;;;;6.04;100.00;94833.38;5113567;28;20470;-73
2020/12/16 06:05:07;;;;;;;25.40;23.10;;;;;;;6.06;100.00;94839.19;5113308;28;20499;-73
2020/12/16 06:07:38;;;;;;;26.90;24.13;;;;;;;6.07;100.00;94824.69;5113324;28;20494;-75
2020/12/16 06:10:06;;;;;;;25.90;23.40;;;;;;;6.11;100.00;94833.69;5093239;28;20440;-73
2020/12/16 06:12:39;;;;;;;30.37;25.70;;;;;;;6.24;100.00;94823.19;5093338;28;21009;-73
2020/12/16 06:15:10;;;;;;;27.60;24.63;;;;;;;6.29;100.00;94831.25;5109361;28;20435;-73
2020/12/16 06:17:41;;;;;;;24.40;22.40;;;;;;;6.23;100.00;94836.13;5113816;28;20475;-74
2020/12/16 06:20:13;;;;;;;28.50;25.90;;;;;;;6.28;100.00;94834.75;5113817;28;20819;-74
2020/12/16 06:22:42;;;;;;;27.23;24.63;;;;;;;6.34;100.00;94842.84;5113184;28;20508;-74
2020/12/16 06:25:13;;;;;;;27.00;24.37;;;;;;;6.28;100.00;94833.94;5113456;28;20443;-74
2020/12/16 06:27:45;;;;;;;27.67;24.57;;;;;;;6.33;100.00;94849.72;5113388;28;20514;-74
2020/12/16 06:30:16;;;;;;;28.13;25.13;;;;;;;6.33;100.00;94842.03;5113089;28;20827;-76
2020/12/16 06:32:48;;;;;;;27.57;24.40;;;;;;;6.41;100.00;94846.47;5112964;28;20527;-73
2020/12/16 06:35:20;;;;;;;26.57;24.33;;;;;;;6.41;100.00;94854.13;5112803;28;20419;-73
2020/12/16 06:38:07;;;;;;;26.47;23.97;;;;;;;5.92;100.00;94872.78;5113127;28;20499;-73
2020/12/16 06:40:43;;;;;;;26.83;24.10;;;;;;;5.14;100.00;94875.75;5112879;28;20450;-74
2020/12/16 06:43:44;;;;;;;26.30;23.70;;;;;;;4.68;100.00;94875.25;5113021;28;20441;-74
2020/12/16 06:46:42;;;;;;;26.17;23.80;;;;;;;4.98;100.00;94877.94;5049753;28;20449;-74
2020/12/16 06:49:25;;;;;;;26.47;23.97;;;;;;;5.30;100.00;94886.44;5049830;28;20465;-73
2020/12/16 06:51:55;;;;;;;27.10;24.40;;;;;;;5.23;100.00;94886.13;5097962;28;20478;-74
2020/12/16 06:54:24;;;;;;;29.90;24.73;;;;;;;5.49;100.00;94883.97;5112149;28;20430;-74
2020/12/16 06:57:10;;;;;;;27.17;24.70;;;;;;;5.66;100.00;94886.84;5108459;28;21013;-74
2020/12/16 06:59:44;;;;;;;25.87;23.70;;;;;;;5.88;100.00;94886.75;5112007;28;20444;-74
2020/12/16 07:02:12;;;;;;;26.37;24.07;;;;;;;6.06;100.00;94898.00;5112089;28;20490;-74
2020/12/16 07:04:38;;;;;;;26.80;23.97;;;;;;;5.96;100.00;94890.28;5113082;28;20424;-73
2020/12/16 07:07:06;;;;;;;26.90;24.50;;;;;;;6.14;100.00;94904.19;5112090;28;20442;-73
2020/12/16 07:09:33;;;;;;;28.63;25.93;;;;;;;6.19;100.00;94896.94;5112815;28;20420;-73
2020/12/16 07:12:01;;;;;;;31.90;25.03;;;;;;;6.25;100.00;94896.41;5112573;28;20478;-74
2020/12/16 07:14:34;;;;;;;28.70;25.90;;;;;;;6.19;100.00;94884.16;5112014;28;21003;-73
2020/12/16 07:17:06;;;;;;;29.37;26.57;;;;;;;5.95;100.00;94892.97;5112303;28;20475;-73
2020/12/16 07:19:32;;;;;;;28.20;25.20;;;;;;;5.91;100.00;94896.75;5112046;28;20446;-73
2020/12/16 07:22:16;;;;;;;28.37;25.20;;;;;;;5.98;100.00;94882.47;5111559;28;20460;-73
2020/12/16 11:56:28;;;;;;;69.30;43.60;;;;;;;6.23;100.00;94877.81;6185697;22;20377;31
2020/12/16 11:59:01;;;;;;;69.60;43.37;;;;;;;6.14;100.00;94858.16;4988975;28;20514;-74
2020/12/16 12:01:27;;;;;;;64.03;42.07;;;;;;;6.21;100.00;94872.03;4991468;28;20424;-76
2020/12/16 12:03:54;;;;;;;62.20;40.10;;;;;;;6.15;100.00;94872.56;4991670;28;20443;-76
2020/12/16 12:06:21;;;;;;;64.80;41.03;;;;;;;6.24;100.00;94865.84;4991880;28;20451;-82
2020/12/16 12:08:47;;;;;;;45.87;36.13;;;;;;;6.12;100.00;94865.16;4992430;28;20448;-82
2020/12/16 12:11:16;;;;;;;66.60;37.80;;;;;;;5.59;100.00;94807.34;4992399;28;20477;-82
2020/12/16 12:13:44;;;;;;;64.07;39.30;;;;;;;6.10;100.00;94862.75;4992731;28;20520;-79
2020/12/16 12:16:12;;;;;;;55.00;39.60;;;;;;;6.02;100.00;94858.28;4992304;28;20440;-77
2020/12/16 12:18:39;;;;;;;54.37;39.67;;;;;;;6.04;100.00;94860.69;4992145;28;20421;-77
2020/12/16 12:21:06;;;;;;;53.83;36.33;;;;;;;6.22;100.00;94855.75;4991912;28;20440;-76
2020/12/16 12:23:32;;;;;;;57.40;37.17;;;;;;;6.40;100.00;94832.06;4992021;28;20437;-79
2020/12/16 12:25:59;;;;;;;55.27;36.73;;;;;;;5.89;100.00;94853.41;4991584;28;21029;-77
2020/12/16 12:28:25;;;;;;;64.87;38.70;;;;;;;6.12;100.00;94837.84;4991578;28;20453;-78
2020/12/16 12:30:53;;;;;;;58.50;38.57;;;;;;;6.29;100.00;94845.81;4991491;28;20977;-77
2020/12/16 12:33:19;;;;;;;47.47;36.93;;;;;;;6.21;100.00;94838.78;4991604;28;20479;-76
2020/12/16 12:35:46;;;;;;;53.63;37.30;;;;;;;6.59;100.00;94831.22;4991425;28;20805;-76
2020/12/16 12:38:13;;;;;;;59.97;38.43;;;;;;;6.10;100.00;94818.47;4992113;28;20444;-77
2020/12/16 12:40:39;;;;;;;47.93;36.57;;;;;;;5.80;100.00;94839.66;4991380;28;20448;-76
2020/12/16 12:43:06;;;;;;;47.30;34.93;;;;;;;5.99;100.00;94824.47;4991800;28;20439;-76
2020/12/16 12:45:33;;;;;;;43.87;33.63;;;;;;;5.76;100.00;94828.09;4991798;28;20440;-78
2020/12/16 12:48:00;;;;;;;48.63;33.20;;;;;;;5.68;100.00;94840.72;4992120;28;20431;-78
2020/12/16 12:50:27;;;;;;;41.77;33.60;;;;;;;5.76;100.00;94843.41;4991127;28;20449;-79
2020/12/16 12:52:53;;;;;;;42.83;32.60;;;;;;;5.82;100.00;94837.78;4991583;28;20482;-75
2020/12/16 12:55:20;;;;;;;39.93;31.03;;;;;;;5.96;100.00;94831.47;4991166;28;20950;-77
2020/12/16 12:57:46;;;;;;;41.83;32.50;;;;;;;6.10;100.00;94826.94;4981783;28;20646;-77
2020/12/16 13:00:14;;;;;;;44.20;32.07;;;;;;;5.91;100.00;94797.84;4972370;28;20456;-79
2020/12/16 13:02:41;;;;;;;52.10;30.97;;;;;;;6.04;100.00;94858.97;4971622;28;21042;-79
2020/12/16 13:05:10;;;;;;;39.73;32.60;;;;;;;5.90;100.00;94842.25;4971616;28;20484;-77
2020/12/16 13:07:36;;;;;;;41.77;32.37;;;;;;;6.13;100.00;94847.16;4972084;28;20418;-76
2020/12/16 13:10:04;;;;;;;40.77;33.07;;;;;;;6.28;100.00;94834.75;4971990;28;20491;-76
2020/12/16 13:12:30;;;;;;;46.13;31.17;;;;;;;6.30;100.00;94844.84;4971589;28;20520;-77
2020/12/16 13:14:57;;;;;;;38.77;31.37;;;;;;;6.48;100.00;94837.31;4971617;28;20817;-77
2020/12/16 13:17:23;;;;;;;34.23;30.23;;;;;;;6.67;100.00;94837.41;4971193;28;20482;-76
2020/12/16 13:19:50;;;;;;;46.87;32.87;;;;;;;6.43;100.00;94810.53;4971797;28;20445;-77
2020/12/16 13:22:19;;;;;;;42.17;32.73;;;;;;;6.63;100.00;94839.47;4971733;28;20433;-76
2020/12/16 13:24:45;;;;;;;42.73;31.77;;;;;;;6.80;100.00;94835.38;4971650;28;20465;-77
2020/12/16 13:27:12;;;;;;;41.17;32.33;;;;;;;6.84;100.00;94846.13;4971356;28;20827;-77
2020/12/16 13:29:38;;;;;;;42.13;33.20;;;;;;;6.93;100.00;94842.75;4972315;28;20792;-82
2020/12/16 13:32:05;;;;;;;49.93;32.87;;;;;;;7.01;100.00;94839.50;4971772;28;20834;-77
2020/12/16 13:34:31;;;;;;;44.97;34.60;;;;;;;6.97;100.00;94846.66;4972217;28;20457;-79
2020/12/16 13:36:58;;;;;;;48.93;35.23;;;;;;;7.03;100.00;94839.38;4972158;28;20445;-79
2020/12/16 13:39:25;;;;;;;39.10;33.23;;;;;;;6.87;100.00;94835.63;4972243;28;20439;-78
2020/12/16 13:41:52;;;;;;;41.40;34.53;;;;;;;7.10;100.00;94860.91;4972400;28;20445;-78
2020/12/16 13:44:19;;;;;;;41.23;32.93;;;;;;;7.05;100.00;94863.06;4971969;28;20998;-80
2020/12/16 13:46:47;;;;;;;42.07;31.90;;;;;;;7.13;100.00;94872.63;4972940;28;20775;-78
2020/12/16 13:49:13;;;;;;;42.13;32.57;;;;;;;7.03;100.00;94877.78;4972505;28;20430;-80
2020/12/16 13:51:40;;;;;;;44.30;32.63;;;;;;;6.92;100.00;94886.44;4972383;28;20478;-80
2020/12/16 13:54:06;;;;;;;57.20;33.23;;;;;;;6.94;100.00;94882.78;4972504;28;20433;-79
2020/12/16 13:56:33;;;;;;;42.27;32.90;;;;;;;6.97;100.00;94889.38;4972271;28;21161;-79
2020/12/16 13:59:00;;;;;;;42.47;32.57;;;;;;;6.41;100.00;94841.34;4972793;28;20592;-79
2020/12/16 14:01:28;;;;;;;41.70;31.67;;;;;;;6.57;100.00;94902.22;4972887;28;20527;-78
2020/12/16 14:03:54;;;;;;;47.30;33.33;;;;;;;6.69;100.00;94877.31;4972181;28;20549;-78
2020/12/16 14:06:21;;;;;;;43.10;32.30;;;;;;;6.69;100.00;94873.94;4972227;28;20528;-80
2020/12/16 14:08:47;;;;;;;37.30;31.53;;;;;;;6.87;100.00;94889.41;4974386;28;20429;-78
2020/12/16 14:11:14;;;;;;;42.73;34.70;;;;;;;6.40;100.00;94862.78;4975565;28;20473;-78
2020/12/16 14:13:42;;;;;;;37.83;31.00;;;;;;;6.39;100.00;94902.88;4975193;28;20781;-79
2020/12/16 14:16:09;;;;;;;35.00;30.33;;;;;;;6.51;100.00;94883.09;4975111;28;20519;-78
2020/12/16 14:18:37;;;;;;;44.70;32.27;;;;;;;6.62;100.00;94906.94;4964769;28;20553;-78
2020/12/16 14:21:05;;;;;;;40.53;31.63;;;;;;;6.45;100.00;94908.41;4955912;29;20485;-79
2020/12/16 14:23:32;;;;;;;50.40;31.70;;;;;;;6.34;100.00;94911.91;4955752;29;20438;-80
2020/12/16 14:25:59;;;;;;;34.23;30.03;;;;;;;6.36;100.00;94899.81;4955574;29;20869;-81
2020/12/16 14:28:25;;;;;;;38.50;29.73;;;;;;;6.35;100.00;94893.88;4956264;29;20430;-81
2020/12/16 14:30:53;;;;;;;35.13;30.80;;;;;;;6.38;100.00;94905.59;4955786;29;20545;-82
2020/12/16 14:33:19;;;;;;;43.87;30.70;;;;;;;6.29;100.00;94896.97;4956039;29;20624;-83
2020/12/16 14:35:46;;;;;;;38.47;30.90;;;;;;;6.46;100.00;94898.03;4956042;29;20535;-79
2020/12/16 14:38:13;;;;;;;44.10;31.63;;;;;;;6.18;100.00;94862.09;4956403;29;20457;-86
2020/12/16 14:40:40;;;;;;;33.93;30.47;;;;;;;6.10;100.00;94892.63;4954613;29;20485;-88
2020/12/16 14:43:07;;;;;;;37.10;31.30;;;;;;;6.18;100.00;94883.34;4955380;28;20453;-78
2020/12/16 14:45:34;;;;;;;33.37;29.70;;;;;;;5.88;100.00;94868.88;4955472;29;20423;-78
2020/12/16 14:48:03;;;;;;;35.97;30.57;;;;;;;6.25;100.00;94882.84;4955557;29;20836;-79
2020/12/16 14:50:29;;;;;;;32.73;28.73;;;;;;;6.22;100.00;94871.13;4955433;29;20441;-80
2020/12/16 14:52:56;;;;;;;38.60;30.87;;;;;;;6.32;100.00;94875.44;4955336;29;20472;-80
2020/12/16 14:55:22;;;;;;;58.20;32.40;;;;;;;6.00;100.00;94832.03;4955362;29;21036;-80
2020/12/16 14:57:48;;;;;;;44.03;32.53;;;;;;;5.77;100.00;94836.56;4956391;28;21017;-79
2020/12/16 15:00:16;;;;;;;47.27;33.17;;;;;;;5.78;100.00;94881.66;4955342;29;20435;-78
2020/12/16 15:02:43;;;;;;;48.60;34.10;;;;;;;5.91;100.00;94873.72;4955633;29;20996;-78
2020/12/16 15:05:10;;;;;;;41.37;30.63;;;;;;;5.62;100.00;94870.16;4955331;29;20525;-79
2020/12/16 15:07:37;;;;;;;39.40;32.27;;;;;;;5.59;100.00;94857.66;4955136;29;20419;-79
2020/12/16 15:10:05;;;;;;;38.60;31.43;;;;;;;5.48;100.00;94840.69;4954624;29;20445;-82
2020/12/16 15:12:31;;;;;;;37.60;29.63;;;;;;;5.53;100.00;94871.75;4955086;29;20875;-79
2020/12/16 15:14:58;;;;;;;39.83;31.30;;;;;;;5.36;100.00;94856.09;4954611;29;20509;-79
2020/12/16 15:17:25;;;;;;;50.43;33.47;;;;;;;5.29;100.00;94854.19;4954718;29;20430;-83
2020/12/16 15:19:52;;;;;;;50.87;31.60;;;;;;;5.14;100.00;94823.88;4954844;28;20481;-80
2020/12/16 15:22:19;;;;;;;50.43;31.40;;;;;;;5.42;100.00;94848.84;4954848;29;20445;-78
2020/12/16 15:24:46;;;;;;;67.17;36.43;;;;;;;5.53;100.00;94856.44;4954732;29;20877;-83
2020/12/16 15:27:13;;;;;;;44.50;35.43;;;;;;;5.75;100.00;94864.00;4954784;29;20437;-86
2020/12/16 15:29:40;;;;;;;57.27;33.93;;;;;;;5.66;100.00;94847.72;4954967;29;20906;-84
2020/12/16 15:32:07;;;;;;;43.13;30.70;;;;;;;5.91;100.00;94863.50;4954680;29;20478;-85
2020/12/16 15:34:33;;;;;;;39.50;29.83;;;;;;;6.04;100.00;94869.19;4955565;29;20474;-86
2020/12/16 15:37:00;;;;;;;44.53;31.87;;;;;;;6.06;100.00;94872.44;4954406;29;20458;-77
2020/12/16 15:39:27;;;;;;;78.80;72.93;;;;;;;6.02;100.00;94870.25;4954926;29;20554;-82
2020/12/16 15:41:55;;;;;;;74.03;68.80;;;;;;;6.23;100.00;94859.91;4954859;29;20434;-82
2020/12/16 15:44:21;;;;;;;77.00;69.83;;;;;;;6.17;100.00;94847.69;4954537;29;20439;-83
2020/12/16 15:46:48;;;;;;;49.13;33.80;;;;;;;6.23;100.00;94861.69;4954161;29;20442;-78
2020/12/16 15:49:19;;;;;;;40.60;34.03;;;;;;;6.37;100.00;94847.69;4954273;29;20442;-86
2020/12/16 15:51:45;;;;;;;49.67;37.40;;;;;;;6.41;100.00;94847.28;4965160;28;20484;-89
2020/12/16 15:54:12;;;;;;;52.93;38.40;;;;;;;6.33;100.00;94856.56;4973279;28;20830;-76